Last 7 Days

Suisun Valley

Hourly Data | America/Los_Angeles
as of 4/23/24 7:26 PM PDT
Date & Time Temp (°F) RH (%) Dew Pt (°F) Wind Spd (mph) Wind Dir (°) Wind Gust (mph) Wind Gst Dir (°) Latest Rain (In) Daily Rain (In) Daily Min Temp (°F) Daily Max Temp (°F)
4/23/24 - 1900 59.6 65 47.8 8.9 SW | 236 16.5 SW | 218 0.00 0.00 54.2 65.2
4/23/24 - 1800 60.6 65 48.8 10.0 WSW | 240 18.2 SW | 232 0.00 0.00 54.2 65.2
4/23/24 - 1700 61.8 63 49.1 11.8 SW | 231 21.9 SW | 233 0.00 0.00 54.2 65.2
4/23/24 - 1600 63.6 59 48.9 10.9 WSW | 238 21.9 WSW | 255 0.00 0.00 54.2 65.2
4/23/24 - 1500 63.9 57 48.6 10.8 SW | 236 22.2 SW | 231 0.00 0.00 54.2 65.2
4/23/24 - 1400 62.9 58 47.9 11.6 SW | 236 22.2 SW | 223 0.00 0.00 54.2 64.0
4/23/24 - 1300 62.1 60 48.2 11.1 SW | 230 22.2 SSW | 202 0.00 0.00 54.2 63.3
4/23/24 - 1200 60.1 66 48.7 10.5 SW | 236 20.2 SW | 226 0.00 0.00 54.2 61.4
4/23/24 - 1100 59.0 68 48.5 9.1 SW | 236 19.5 SW | 216 0.00 0.00 54.2 60.2
4/23/24 - 1000 57.8 71 48.5 8.2 WSW | 238 18.5 SW | 235 0.00 0.00 54.2 58.3
4/23/24 - 0900 56.6 76 49.2 6.9 WSW | 245 14.5 WSW | 248 0.00 0.00 54.2 57.2
4/23/24 - 0800 56.0 77 49.0 5.7 WSW | 258 11.5 SW | 221 0.00 0.00 54.2 56.3
4/23/24 - 0700 55.5 78 48.8 5.6 W | 265 15.2 WNW | 293 0.00 0.00 54.2 55.7
4/23/24 - 0600 55.3 78 48.8 5.6 W | 260 11.1 WSW | 248 0.00 0.00 54.2 55.5
4/23/24 - 0500 55.3 78 48.7 5.9 W | 267 14.2 W | 275 0.00 0.00 54.2 55.5
4/23/24 - 0400 54.8 80 48.7 5.6 WSW | 254 13.2 W | 278 0.00 0.00 54.2 55.2
4/23/24 - 0300 54.5 80 48.5 5.8 WSW | 252 16.2 WSW | 253 0.00 0.00 54.2 55.2
4/23/24 - 0200 54.8 78 48.1 6.8 WSW | 248 14.5 W | 267 0.00 0.00 54.2 55.2
4/23/24 - 0100 55.1 78 48.3 6.3 WSW | 250 13.8 SW | 233 0.00 0.00 54.5 81.4
4/23/24 - 0000 55.3 79 48.8 7.5 WSW | 253 17.8 SW | 220 0.00 0.00 54.5 81.4
4/22/24 - 2300 56.2 79 49.8 6.0 WSW | 251 16.5 W | 270 0.00 0.00 54.5 81.4
4/22/24 - 2200 57.4 80 51.3 8.1 SW | 231 19.5 SW | 233 0.00 0.00 54.5 81.4
4/22/24 - 2100 58.6 79 52.0 5.5 SW | 220 14.2 SSW | 201 0.00 0.00 54.5 81.4
4/22/24 - 2000 61.0 75 53.0 6.8 SW | 228 16.5 SSW | 208 0.00 0.00 54.5 81.4
4/22/24 - 1900 64.2 68 53.2 6.6 WSW | 239 15.2 SW | 228 0.00 0.00 54.5 81.4
4/22/24 - 1800 71.3 58 55.9 10.6 WSW | 240 21.5 SW | 234 0.00 0.00 54.5 81.4
4/22/24 - 1700 74.6 50 54.6 13.7 WSW | 242 24.2 SW | 230 0.00 0.00 54.5 81.4
4/22/24 - 1600 79.0 43 54.3 10.6 WSW | 243 19.5 WSW | 246 0.00 0.00 54.5 81.4
4/22/24 - 1500 80.0 50 59.5 8.8 SW | 224 14.5 SSW | 199 0.00 0.00 54.5 81.4
4/22/24 - 1400 79.0 52 60.0 8.0 SW | 224 12.1 SW | 222 0.00 0.00 54.5 80.1
4/22/24 - 1300 78.8 47 56.8 3.9 WSW | 240 10.8 SW | 215 0.00 0.00 54.5 80.1
4/22/24 - 1200 76.0 53 57.8 4.0 SW | 232 8.8 SW | 215 0.00 0.00 54.5 77.6
4/22/24 - 1100 74.6 58 58.8 4.2 SW | 235 7.4 SW | 221 0.00 0.00 54.5 75.3
4/22/24 - 1000 72.3 64 59.6 2.0 WSW | 245 6.1 SW | 232 0.00 0.00 54.5 74.3
4/22/24 - 0900 66.7 75 58.4 0.0 WSW | 253 2.7 WSW | 253 0.00 0.00 54.5 70.9
4/22/24 - 0800 59.2 92 57.0 0.8 WNW | 299 3.4 WNW | 301 0.00 0.00 54.5 63.0
4/22/24 - 0700 55.2 96 53.9 0.4 WNW | 301 3.4 WNW | 301 0.00 0.00 54.5 59.6
4/22/24 - 0600 56.4 93 54.5 0.0 W | 274 1.7 W | 274 0.00 0.00 55.1 59.6
4/22/24 - 0500 58.1 92 55.7 3.1 WNW | 303 6.1 NW | 305 0.00 0.00 57.4 59.6
4/22/24 - 0400 58.2 93 56.2 3.1 WNW | 288 5.1 WNW | 292 0.00 0.00 57.4 59.6
4/22/24 - 0300 58.0 93 55.9 3.2 WNW | 302 4.8 NW | 323 0.00 0.00 57.4 59.6
4/22/24 - 0200 59.2 91 56.6 2.8 WNW | 292 4.8 WNW | 294 0.00 0.00 58.9 59.6
4/22/24 - 0100 60.2 90 57.2 3.3 WNW | 301 5.8 NW | 309 0.00 0.00 47.4 84.1
4/22/24 - 0000 61.6 87 57.7 2.6 WNW | 295 4.8 WNW | 303 0.00 0.00 47.4 84.1
4/21/24 - 2300 63.6 83 58.3 3.2 WNW | 294 5.1 NW | 306 0.00 0.00 47.4 84.1
4/21/24 - 2200 65.8 78 58.9 2.2 WNW | 289 4.1 WNW | 302 0.00 0.00 47.4 84.1
4/21/24 - 2100 69.6 68 58.5 1.2 WNW | 284 4.1 WNW | 292 0.00 0.00 47.4 84.1
4/21/24 - 2000 76.6 46 54.4 1.4 WSW | 249 7.1 WSW | 241 0.00 0.00 47.4 84.1
4/21/24 - 1900 80.5 40 53.8 5.1 WSW | 238 8.4 SW | 226 0.00 0.00 47.4 84.1
4/21/24 - 1800 82.1 40 55.4 5.8 SW | 236 8.8 SW | 234 0.00 0.00 47.4 84.1
4/21/24 - 1700 82.6 43 57.6 6.5 SW | 234 10.5 SW | 228 0.00 0.00 47.4 84.1
4/21/24 - 1600 83.0 41 57.1 4.3 WSW | 245 10.5 SW | 222 0.00 0.00 47.4 84.1
4/21/24 - 1500 82.1 39 54.9 3.5 WSW | 249 9.1 SW | 220 0.00 0.00 47.4 83.3
4/21/24 - 1400 79.7 42 54.9 3.0 WSW | 247 8.1 SW | 219 0.00 0.00 47.4 81.5
4/21/24 - 1300 77.4 45 54.5 3.3 WSW | 240 8.8 SW | 228 0.00 0.00 47.4 79.0
4/21/24 - 1200 74.6 48 53.5 2.8 WSW | 240 8.4 SW | 225 0.00 0.00 47.4 76.4
4/21/24 - 1100 71.0 52 52.3 2.4 WSW | 244 6.8 SW | 230 0.00 0.00 47.4 73.2
4/21/24 - 1000 68.2 55 51.7 2.2 WSW | 240 6.1 SW | 226 0.00 0.00 47.4 69.6
4/21/24 - 0900 63.4 57 47.8 0.3 WSW | 258 3.4 WSW | 241 0.00 0.00 47.4 66.8
4/21/24 - 0800 54.3 78 47.5 0.5 W | 278 2.7 WNW | 282 0.00 0.00 47.4 60.7
4/21/24 - 0700 48.2 91 45.9 0.2 W | 272 2.7 W | 273 0.00 0.00 47.4 60.7
4/21/24 - 0600 48.6 88 45.3 0.0 WSW | 246 2.4 WSW | 247 0.00 0.00 47.8 60.7
4/21/24 - 0500 51.1 79 44.6 0.5 W | 271 4.1 WSW | 238 0.00 0.00 49.1 60.7
4/21/24 - 0400 55.2 64 43.3 2.1 WSW | 249 7.8 SW | 231 0.00 0.00 52.4 60.7
4/21/24 - 0300 58.4 54 41.8 5.0 SW | 228 12.1 SW | 229 0.00 0.00 54.4 60.7
4/21/24 - 0200 59.1 52 41.6 4.8 SW | 231 11.8 SW | 216 0.00 0.00 58.4 60.6
4/21/24 - 0100 59.5 50 40.7 2.6 SW | 236 9.1 SW | 224 0.00 0.00 48.5 77.2
4/21/24 - 0000 58.2 62 45.1 1.0 WSW | 254 5.8 WNW | 295 0.00 0.00 48.5 77.2
4/20/24 - 2300 57.8 73 49.3 1.6 WSW | 253 6.1 WNW | 286 0.00 0.00 48.5 77.2
4/20/24 - 2200 57.9 76 50.6 0.5 W | 268 7.4 NW | 319 0.00 0.00 48.5 77.2
4/20/24 - 2100 62.2 56 46.3 0.1 WSW | 255 3.4 W | 266 0.00 0.00 48.5 77.2
4/20/24 - 2000 67.4 39 41.5 8.0 SW | 221 13.5 SSW | 208 0.00 0.00 48.5 77.2
4/20/24 - 1900 73.1 36 44.9 5.9 SW | 232 11.5 SSW | 208 0.00 0.00 48.5 77.2
4/20/24 - 1800 76.1 35 46.6 6.2 WSW | 258 15.8 WSW | 241 0.00 0.00 48.5 77.2
4/20/24 - 1700 76.6 38 49.4 10.6 WSW | 246 17.5 WSW | 237 0.00 0.00 48.5 77.2
4/20/24 - 1600 75.6 47 53.7 12.5 WSW | 254 21.2 W | 262 0.00 0.00 48.5 76.7
4/20/24 - 1500 75.1 49 54.4 11.5 WSW | 253 20.5 WSW | 254 0.00 0.00 48.5 76.7
4/20/24 - 1400 74.3 49 54.1 10.1 WSW | 252 18.2 WNW | 285 0.00 0.00 48.5 76.6
4/20/24 - 1300 71.8 55 54.6 8.1 WSW | 249 15.8 WSW | 246 0.00 0.00 48.5 72.7
4/20/24 - 1200 68.5 62 54.9 6.8 WSW | 240 12.1 SW | 231 0.00 0.00 48.5 70.9
4/20/24 - 1100 63.7 70 53.8 8.1 SW | 236 13.2 SW | 230 0.00 0.00 48.5 66.0
4/20/24 - 1000 60.6 75 52.5 6.3 WSW | 242 11.5 SW | 224 0.00 0.00 48.5 62.0
4/20/24 - 0900 55.7 86 51.4 0.9 W | 268 6.8 SW | 230 0.00 0.00 48.5 59.2
4/20/24 - 0800 50.9 95 49.5 1.8 W | 264 6.4 WSW | 241 0.00 0.00 48.5 53.6
4/20/24 - 0700 49.3 95 47.8 0.7 W | 274 7.8 SW | 230 0.00 0.00 48.5 53.6
4/20/24 - 0600 51.3 92 49.0 2.8 W | 272 12.1 W | 270 0.00 0.00 48.6 53.6
4/20/24 - 0500 51.3 92 49.1 4.3 SW | 235 14.5 SSW | 204 0.00 0.00 48.6 53.6
4/20/24 - 0400 49.4 97 48.5 0.1 W | 276 2.7 W | 281 0.00 0.00 48.9 53.2
4/20/24 - 0300 50.2 96 49.1 0.0 W | 274 2.1 W | 275 0.00 0.00 49.5 53.2
4/20/24 - 0200 52.1 93 50.2 0.4 W | 281 5.4 NW | 323 0.00 0.00 50.9 53.2
4/20/24 - 0100 53.4 92 51.2 0.9 W | 279 7.1 SW | 220 0.00 0.00 49.4 73.9
4/20/24 - 0000 54.4 89 51.2 0.0 N | 0 0.0 WSW | 255 0.00 0.00 49.4 73.9
4/19/24 - 2300 57.1 82 51.7 0.5 W | 274 3.8 WNW | 286 0.00 0.00 49.4 73.9
4/19/24 - 2200 61.3 65 49.4 4.2 SW | 234 11.8 SW | 222 0.00 0.00 49.4 73.9
4/19/24 - 2100 65.0 60 50.8 4.0 W | 269 9.8 W | 269 0.00 0.00 49.4 73.9
4/19/24 - 2000 66.3 57 50.4 7.1 W | 270 21.9 WSW | 251 0.00 0.00 49.4 73.9
4/19/24 - 1900 68.1 59 53.3 12.0 W | 259 22.9 W | 276 0.00 0.00 49.4 73.9
4/19/24 - 1800 70.3 63 56.9 13.1 WSW | 252 21.9 SW | 233 0.00 0.00 49.4 73.9
4/19/24 - 1700 72.2 62 58.6 12.1 WSW | 250 20.9 SW | 222 0.00 0.00 49.4 73.9
4/19/24 - 1600 73.2 59 58.2 9.9 WSW | 252 16.8 WSW | 243 0.00 0.00 49.4 73.9
4/19/24 - 1500 72.0 60 57.6 10.6 WSW | 252 16.5 WSW | 246 0.00 0.00 49.4 72.8
4/19/24 - 1400 68.4 66 56.6 11.8 WSW | 249 18.8 W | 266 0.00 0.00 49.4 70.3
4/19/24 - 1300 66.8 71 57.1 9.0 SW | 236 15.2 SW | 228 0.00 0.00 49.4 69.1
4/19/24 - 1200 64.2 75 56.1 9.2 SW | 236 16.5 WSW | 251 0.00 0.00 49.4 65.2
4/19/24 - 1100 62.4 78 55.4 7.8 WSW | 240 12.5 SW | 232 0.00 0.00 49.4 63.4
4/19/24 - 1000 60.2 80 54.0 7.4 WSW | 252 14.2 W | 263 0.00 0.00 49.4 61.6
4/19/24 - 0900 59.5 81 53.8 2.7 WSW | 251 8.4 W | 262 0.00 0.00 49.4 60.5
4/19/24 - 0800 53.3 96 52.1 0.2 W | 266 4.4 WSW | 253 0.00 0.00 49.4 58.1
4/19/24 - 0700 50.1 97 49.3 0.0 N | 0 0.0 W | 274 0.00 0.00 49.4 58.1
4/19/24 - 0600 51.2 96 50.0 0.4 WNW | 282 3.1 WNW | 290 0.00 0.00 50.4 58.1
4/19/24 - 0500 53.0 92 50.7 0.4 W | 268 3.1 WSW | 248 0.00 0.00 52.0 58.1
4/19/24 - 0400 54.4 90 51.7 1.0 WSW | 247 11.5 WSW | 252 0.00 0.00 53.7 58.1
4/19/24 - 0300 55.8 88 52.3 1.1 SW | 231 10.5 SW | 219 0.00 0.00 54.5 58.1
4/19/24 - 0200 56.6 89 53.3 0.3 SW | 226 8.4 SW | 217 0.00 0.00 55.4 57.9
4/19/24 - 0100 58.2 81 52.5 1.3 SW | 235 7.1 SW | 218 0.00 0.00 51.5 79.2
4/19/24 - 0000 59.4 78 52.5 1.4 WSW | 239 7.8 SW | 220 0.00 0.00 51.5 79.2
4/18/24 - 2300 61.0 80 54.9 1.5 W | 265 8.4 SW | 230 0.00 0.00 51.5 79.2
4/18/24 - 2200 63.7 69 53.2 3.0 WSW | 244 8.4 SW | 226 0.00 0.00 51.5 79.2
4/18/24 - 2100 67.0 66 55.5 0.2 WNW | 298 3.1 NW | 308 0.00 0.00 51.5 79.2
4/18/24 - 2000 70.6 56 54.4 3.6 WNW | 284 12.1 WNW | 286 0.00 0.00 51.5 79.2
4/18/24 - 1900 73.4 51 54.1 6.7 WSW | 255 13.2 W | 265 0.00 0.00 51.5 79.2
4/18/24 - 1800 75.8 47 54.2 6.0 SW | 235 11.1 SW | 222 0.00 0.00 51.5 79.2
4/18/24 - 1700 76.7 44 53.3 8.4 SW | 227 14.2 SW | 214 0.00 0.00 51.5 79.2
4/18/24 - 1600 77.8 43 53.4 6.7 WSW | 240 12.8 SSW | 213 0.00 0.00 51.5 79.2
4/18/24 - 1500 78.3 36 49.5 4.5 WSW | 238 12.1 SW | 236 0.00 0.00 51.5 79.2
4/18/24 - 1400 77.9 35 47.9 3.1 WSW | 242 9.1 SW | 220 0.00 0.00 51.5 79.2
4/18/24 - 1300 75.4 40 49.4 2.7 WSW | 244 7.8 SW | 224 0.00 0.00 51.5 77.6
4/18/24 - 1200 72.4 49 52.2 3.0 WSW | 242 10.1 SSW | 208 0.00 0.00 51.5 74.1
4/18/24 - 1100 69.7 59 54.7 3.7 SW | 236 9.8 SSW | 202 0.00 0.00 51.5 71.6
4/18/24 - 1000 65.8 70 55.8 2.6 WSW | 245 6.8 SW | 227 0.00 0.00 51.5 67.7
4/18/24 - 0900 61.8 82 56.3 0.2 WSW | 254 3.4 WSW | 247 0.00 0.00 51.5 64.6
4/18/24 - 0800 54.8 96 53.8 0.0 WNW | 298 2.4 NW | 313 0.00 0.00 51.5 58.2
4/18/24 - 0700 51.8 98 51.2 0.8 WNW | 298 3.8 NW | 317 0.00 0.00 51.5 56.9
4/18/24 - 0600 53.2 96 52.1 0.9 WNW | 302 4.1 NW | 318 0.00 0.00 51.6 56.9
4/18/24 - 0500 54.7 96 53.4 2.3 WNW | 297 5.4 NW | 317 0.00 0.00 54.3 56.9
4/18/24 - 0400 54.7 96 53.6 3.1 WNW | 297 5.1 NW | 307 0.00 0.00 54.5 56.9
4/18/24 - 0300 55.0 95 53.7 3.3 NW | 306 5.1 WNW | 297 0.00 0.00 54.5 56.9
4/18/24 - 0200 56.5 94 54.6 3.3 NW | 306 6.1 NW | 325 0.00 0.00 55.3 56.9
4/18/24 - 0100 57.0 93 55.1 3.1 WNW | 301 5.4 NW | 315 0.00 0.00 50.2 78.5
4/18/24 - 0000 58.2 91 55.7 3.4 NW | 304 5.4 NW | 323 0.00 0.00 50.2 78.5
4/17/24 - 2300 59.8 88 56.3 3.2 WNW | 302 5.4 NW | 314 0.00 0.00 50.2 78.5
4/17/24 - 2200 61.7 83 56.4 3.4 NW | 308 5.8 NW | 323 0.00 0.00 50.2 78.5
4/17/24 - 2100 64.6 76 57.0 1.7 WNW | 298 6.8 NW | 311 0.00 0.00 50.2 78.5
4/17/24 - 2000 70.9 61 56.5 0.5 W | 269 3.4 WSW | 256 0.00 0.00 50.2 78.5
4/17/24 - 1900 76.0 44 52.8 2.9 WSW | 254 5.4 WSW | 251 0.00 0.00 50.2 78.5
4/17/24 - 1800 77.6 41 52.1 3.1 WSW | 251 6.8 SW | 227 0.00 0.00 50.2 78.5
4/17/24 - 1700 77.6 39 50.9 2.6 W | 276 8.1 SW | 223 0.00 0.00 50.2 78.5
4/17/24 - 1600 76.9 40 50.6 1.7 WNW | 290 6.1 NNW | 340 0.00 0.00 50.2 77.4
4/17/24 - 1500 75.9 45 53.3 3.4 WSW | 242 8.1 SW | 214 0.00 0.00 50.2 76.9
4/17/24 - 1400 74.5 52 55.6 4.5 WSW | 252 9.1 SW | 216 0.00 0.00 50.2 75.5
4/17/24 - 1300 72.3 59 57.1 2.7 NW | 314 7.8 NNW | 345 0.00 0.00 50.2 73.2
4/17/24 - 1200 70.8 62 56.9 2.4 W | 278 7.4 NNW | 345 0.00 0.00 50.2 71.7
4/17/24 - 1100 68.1 68 57.3 1.7 WSW | 250 5.1 WSW | 238 0.00 0.00 50.2 70.0
4/17/24 - 1000 64.5 76 56.7 0.8 WSW | 250 4.4 WSW | 243 0.00 0.00 50.2 66.9
4/17/24 - 0900 59.1 90 56.3 0.1 WNW | 286 2.7 NW | 304 0.00 0.00 50.2 63.2
4/17/24 - 0800 53.0 99 52.6 0.7 WNW | 286 3.8 WNW | 289 0.00 0.00 50.2 56.2
4/17/24 - 0700 50.7 98 50.2 0.1 W | 279 3.4 W | 278 0.00 0.00 50.2 55.7
4/17/24 - 0600 51.5 98 50.9 0.2 WNW | 286 2.7 WNW | 295 0.00 0.00 50.5 55.7
4/17/24 - 0500 52.3 97 51.5 0.0 N | 0 0.0 W | 274 0.00 0.00 51.5 55.7
4/17/24 - 0400 53.0 96 52.0 1.0 WNW | 296 4.1 NW | 309 0.00 0.00 52.5 55.7
4/17/24 - 0300 53.8 95 52.4 0.3 W | 266 2.7 W | 261 0.00 0.00 53.0 55.7
4/17/24 - 0200 55.1 93 53.2 1.3 WNW | 292 5.1 NW | 313 0.00 0.00 54.7 55.7
4/17/24 - 0100 56.0 92 53.6 1.6 WNW | 288 4.8 NW | 308 0.00 0.00 45.5 75.8
4/17/24 - 0000 56.8 90 53.9 1.5 WNW | 293 4.8 WNW | 297 0.00 0.00 45.5 75.8
4/16/24 - 2300 58.1 87 54.1 0.0 N | 0 0.0 W | 271 0.00 0.00 45.5 75.8
4/16/24 - 2200 60.1 83 54.8 0.5 WNW | 282 3.8 WNW | 289 0.00 0.00 45.5 75.8
4/16/24 - 2100 65.1 66 53.2 1.5 W | 275 5.1 SW | 228 0.00 0.00 45.5 75.8
4/16/24 - 2000 69.5 56 52.9 6.7 W | 265 14.8 W | 266 0.00 0.00 45.5 75.8
Max 83.0 99 60.0 13.7 - 24.2 - 0.00 0.00 58.9 84.1
Avg 63.4 70 52.5 4.2 - 9.7 - 0.00 - - -
Min 48.2 35 40.7 0.0 - 0.0 - 0.00 0.00 45.5 53.2
Total - - - - - - - 0.00 - - -
Tip: Bookmark this page for easy future reference